x

Capers Nearshore (cap 2) (41029) Weather Station

10:08am - Fri 14th Dec 2018 All times are EST. -5 hours from GMT.

  • Wind
    18mph, 31mph gusts
  • Sea Temp 57°f
  • Air Temp 62°f
  • Sea Pressure 1020.2mb
  • Capers Nearshore (cap 2)
  • Capers Nearshore (cap 2)

More Historic Weather Station data

Upgrade to MSW Pro to gain access to the past 30 days of data for over 8000 Wavebouys and Weather Stations around the globe.

Join

Comparision Forecast

View Surf forecast
   
Fri 12/14 10:08am 18 31 mph 1020.2mb 57f 62f
9:08am 20 29 mph 1019.2mb 57f 62f
8:08am 20 27 mph 1018.8mb 57f 62f
7:08am 16 20 mph 1019.1mb 57f 61f
6:08am 13 18 mph 1019.5mb 57f 61f
5:08am 13 20 mph 1019.5mb 57f 62f
4:08am 13 20 mph 1019.1mb 57f 62f
3:08am 13 20 mph 1019.5mb 57f 62f
2:08am 13 20 mph 1020.6mb 56f 62f
1:08am 11 16 mph 1020.9mb 56f 61f
12:08am 11 16 mph 1021.7mb 56f 62f
Thu 12/13 11:08pm 11 16 mph 1021.9mb 56f 59f
10:08pm 11 18 mph 1022.6mb 56f 59f
9:08pm 16 20 mph 1022.8mb 56f 58f
8:08pm 18 25 mph 1023.2mb 57f 58f
7:08pm 18 22 mph 1023.5mb 57f 57f
6:08pm 16 22 mph 1023.5mb 56f 57f
5:08pm 13 18 mph 1023.5mb 57f 57f
4:08pm 11 16 mph 1023.4mb 57f 57f
3:08pm 11 18 mph 1023.5mb 56f 56f
2:08pm 11 16 mph 1023.7mb 56f 56f
1:08pm 11 13 mph 1024mb 56f 56f
12:08pm 9 11 mph 1024.3mb 55f 55f
11:08am 9 11 mph 1025.9mb 56f 57f
10:08am 2 4 mph 1025.5mb 55f 56f
9:08am 2 4 mph 1025.9mb 55f 55f
8:08am 7 9 mph 1025.5mb 55f 54f
7:08am 7 9 mph 1024.8mb 55f 53f
6:08am 7 9 mph 1024.2mb 55f 53f
5:08am 4 7 mph 1023.7mb 55f 52f
4:08am 4 4 mph 1023.4mb 55f 52f
3:08am 2 4 mph 1023.2mb 56f 52f
2:08am 2 4 mph 1023.3mb 56f 53f
1:08am 4 4 mph 1023.3mb 56f 53f
12:08am 7 9 mph 1023.8mb 56f 54f
Wed 12/12 11:08pm 7 9 mph 1023.8mb 56f 54f
10:08pm 9 13 mph 1023.9mb 56f 54f
9:08pm 9 11 mph 1023.7mb 56f 53f
8:08pm 9 13 mph 1023.6mb 56f 54f
7:08pm 11 13 mph 1023mb 55f 53f
6:08pm 11 16 mph 1022.4mb 55f 53f
5:08pm 11 16 mph 1022mb 55f 52f
4:08pm 11 13 mph 1022.4mb 55f 53f
3:08pm 11 13 mph 1022mb 55f 53f
2:08pm 9 11 mph 1021.9mb 56f 52f
1:08pm 9 11 mph 1021.8mb 56f 51f
12:08pm 7 9 mph 1022.8mb 56f 49f
11:08am 4 9 mph 1024.4mb 56f 48f
10:08am 7 11 mph 1024.6mb 55f 45f
9:08am 9 13 mph 1024.6mb 55f 43f
8:08am 11 16 mph 1024.3mb 55f 42f
7:08am 11 16 mph 1023.3mb 55f 42f
6:08am 11 16 mph 1022.5mb 55f 43f
5:08am 16 20 mph 1022.2mb 55f 44f
4:08am 18 25 mph 1021.7mb 55f 47f
3:08am 16 22 mph 1021.9mb 55f 48f
2:08am 18 22 mph 1022.1mb 55f 49f
1:08am 13 18 mph 1022.4mb 55f 48f
12:08am 13 20 mph 1022.4mb 55f 48f
Tue 12/11 11:08pm 16 20 mph 1022.5mb 55f 50f
10:08pm 16 20 mph 1022.7mb 55f 51f
9:08pm 13 18 mph 1022.7mb 55f 51f
8:08pm 11 16 mph 1022.3mb 55f 51f
7:08pm 11 13 mph 1021.9mb 55f 52f
6:08pm 9 13 mph 1021.5mb 55f 52f
5:08pm 11 16 mph 1020.9mb 55f 52f
4:08pm 16 20 mph 1021.1mb 55f 53f
3:08pm 16 20 mph 1021mb 55f 52f
2:08pm 18 25 mph 1020.8mb 58f 51f
1:08pm 16 20 mph 1021.3mb 58f 50f
12:08pm 16 22 mph 1022.1mb 58f 48f
11:08am 18 25 mph 1022.9mb 58f 46f
10:08am 18 27 mph 1022.9mb 58f 44f
9:08am 20 27 mph 1022.3mb 58f 41f
8:08am 20 29 mph 1021.7mb 58f 41f
7:08am 18 25 mph 1020.8mb 58f 41f
6:08am 18 22 mph 1019.6mb 57f 40f
5:08am 16 22 mph 1019mb 56f 40f
4:08am 18 22 mph 1018.6mb 57f 40f
3:08am 16 22 mph 1018.4mb 56f 40f
2:08am 13 20 mph 1018.3mb 56f 41f
1:08am 13 16 mph 1018.4mb 56f 42f
12:08am 13 20 mph 1018.7mb 56f 42f
Mon 12/10 11:08pm 11 18 mph 1018.5mb 57f 42f
10:08pm 13 18 mph 1018.3mb 57f 42f
9:08pm 11 16 mph 1018.2mb 57f 43f
8:08pm 11 16 mph 1018.1mb 57f 43f
7:08pm 11 16 mph 1017.9mb 56f 43f
6:08pm 13 18 mph 1017.4mb 56f 43f
5:08pm 13 18 mph 1016.6mb 56f 43f